sensor_id;sensor_type;location;lat;lon;timestamp;temperature;humidity
70851;DHT22;58475;49.662;9.636;2024-02-16T00:01:01;8.24;95.83
70851;DHT22;58475;49.662;9.636;2024-02-16T00:03:27;8.09;96.96
70851;DHT22;58475;49.662;9.636;2024-02-16T00:05:53;8.22;96.60
70851;DHT22;58475;49.662;9.636;2024-02-16T00:08:19;8.24;96.41
70851;DHT22;58475;49.662;9.636;2024-02-16T00:10:45;8.28;96.22
70851;DHT22;58475;49.662;9.636;2024-02-16T00:13:11;8.26;96.16
70851;DHT22;58475;49.662;9.636;2024-02-16T00:15:37;8.28;96.06
70851;DHT22;58475;49.662;9.636;2024-02-16T00:18:06;8.38;95.86
70851;DHT22;58475;49.662;9.636;2024-02-16T00:20:31;8.24;96.03
70851;DHT22;58475;49.662;9.636;2024-02-16T00:22:57;8.28;95.88
70851;DHT22;58475;49.662;9.636;2024-02-16T00:25:23;8.24;95.92
70851;DHT22;58475;49.662;9.636;2024-02-16T00:27:49;8.16;96.13
70851;DHT22;58475;49.662;9.636;2024-02-16T00:30:14;8.22;96.12
70851;DHT22;58475;49.662;9.636;2024-02-16T00:32:43;8.16;96.18
70851;DHT22;58475;49.662;9.636;2024-02-16T00:35:20;8.14;96.29
70851;DHT22;58475;49.662;9.636;2024-02-16T00:37:45;8.09;96.27
70851;DHT22;58475;49.662;9.636;2024-02-16T00:40:11;8.05;96.54
70851;DHT22;58475;49.662;9.636;2024-02-16T00:42:37;8.02;96.88
70851;DHT22;58475;49.662;9.636;2024-02-16T00:45:03;8.05;96.94
70851;DHT22;58475;49.662;9.636;2024-02-16T00:47:31;8.06;96.80
70851;DHT22;58475;49.662;9.636;2024-02-16T00:49:56;8.08;96.71
70851;DHT22;58475;49.662;9.636;2024-02-16T00:52:22;8.06;96.80
70851;DHT22;58475;49.662;9.636;2024-02-16T00:54:48;8.06;96.93
70851;DHT22;58475;49.662;9.636;2024-02-16T00:57:14;8.06;96.83
70851;DHT22;58475;49.662;9.636;2024-02-16T00:59:43;8.11;96.81
70851;DHT22;58475;49.662;9.636;2024-02-16T01:02:08;8.20;96.62
70851;DHT22;58475;49.662;9.636;2024-02-16T01:04:35;8.14;96.61
70851;DHT22;58475;49.662;9.636;2024-02-16T01:07:01;8.20;96.29
70851;DHT22;58475;49.662;9.636;2024-02-16T01:09:26;8.06;96.40
70851;DHT22;58475;49.662;9.636;2024-02-16T01:11:52;8.04;96.62
70851;DHT22;58475;49.662;9.636;2024-02-16T01:14:17;8.05;96.67
70851;DHT22;58475;49.662;9.636;2024-02-16T01:16:43;8.05;96.72
70851;DHT22;58475;49.662;9.636;2024-02-16T01:19:08;8.08;96.71
70851;DHT22;58475;49.662;9.636;2024-02-16T01:21:35;8.20;96.52
70851;DHT22;58475;49.662;9.636;2024-02-16T01:24:00;8.16;96.16
70851;DHT22;58475;49.662;9.636;2024-02-16T01:26:27;8.15;95.72
70851;DHT22;58475;49.662;9.636;2024-02-16T01:28:52;7.95;96.22
70851;DHT22;58475;49.662;9.636;2024-02-16T01:31:18;7.85;96.77
70851;DHT22;58475;49.662;9.636;2024-02-16T01:33:43;7.78;97.02
70851;DHT22;58475;49.662;9.636;2024-02-16T01:36:08;7.74;96.99
70851;DHT22;58475;49.662;9.636;2024-02-16T01:38:34;7.66;97.24
70851;DHT22;58475;49.662;9.636;2024-02-16T01:41:00;7.67;97.54
70851;DHT22;58475;49.662;9.636;2024-02-16T01:43:26;7.70;97.44
70851;DHT22;58475;49.662;9.636;2024-02-16T01:45:53;7.71;97.59
70851;DHT22;58475;49.662;9.636;2024-02-16T01:48:18;7.70;97.65
70851;DHT22;58475;49.662;9.636;2024-02-16T01:50:44;7.70;97.90
70851;DHT22;58475;49.662;9.636;2024-02-16T01:53:11;7.74;97.70
70851;DHT22;58475;49.662;9.636;2024-02-16T01:55:37;7.80;97.58
70851;DHT22;58475;49.662;9.636;2024-02-16T01:58:03;7.74;98.09
70851;DHT22;58475;49.662;9.636;2024-02-16T02:00:29;7.80;97.99
70851;DHT22;58475;49.662;9.636;2024-02-16T02:02:54;7.90;97.66
70851;DHT22;58475;49.662;9.636;2024-02-16T02:05:20;7.98;97.34
70851;DHT22;58475;49.662;9.636;2024-02-16T02:07:45;7.98;97.18
70851;DHT22;58475;49.662;9.636;2024-02-16T02:10:11;7.99;97.10
70851;DHT22;58475;49.662;9.636;2024-02-16T02:12:40;7.95;97.06
70851;DHT22;58475;49.662;9.636;2024-02-16T02:15:08;7.85;97.35
70851;DHT22;58475;49.662;9.636;2024-02-16T02:17:34;7.78;97.31
70851;DHT22;58475;49.662;9.636;2024-02-16T02:19:59;7.80;97.54
70851;DHT22;58475;49.662;9.636;2024-02-16T02:22:25;7.81;97.47
70851;DHT22;58475;49.662;9.636;2024-02-16T02:24:52;7.80;97.58
70851;DHT22;58475;49.662;9.636;2024-02-16T02:27:20;7.77;97.65
70851;DHT22;58475;49.662;9.636;2024-02-16T02:29:46;7.84;97.40
70851;DHT22;58475;49.662;9.636;2024-02-16T02:32:12;7.84;96.97
70851;DHT22;58475;49.662;9.636;2024-02-16T02:34:38;7.66;97.52
70851;DHT22;58475;49.662;9.636;2024-02-16T02:37:03;7.66;97.67
70851;DHT22;58475;49.662;9.636;2024-02-16T02:39:29;7.70;97.48
70851;DHT22;58475;49.662;9.636;2024-02-16T02:41:55;7.63;97.63
70851;DHT22;58475;49.662;9.636;2024-02-16T02:44:20;7.59;97.93
70851;DHT22;58475;49.662;9.636;2024-02-16T02:46:46;7.57;98.10
70851;DHT22;58475;49.662;9.636;2024-02-16T02:49:11;7.52;98.07
70851;DHT22;58475;49.662;9.636;2024-02-16T02:51:36;7.47;98.26
70851;DHT22;58475;49.662;9.636;2024-02-16T02:54:02;7.43;98.34
70851;DHT22;58475;49.662;9.636;2024-02-16T02:56:27;7.40;98.30
70851;DHT22;58475;49.662;9.636;2024-02-16T02:58:52;7.39;98.50
70851;DHT22;58475;49.662;9.636;2024-02-16T03:01:18;7.36;98.56
70851;DHT22;58475;49.662;9.636;2024-02-16T03:03:45;7.43;98.38
70851;DHT22;58475;49.662;9.636;2024-02-16T03:06:12;7.43;98.31
70851;DHT22;58475;49.662;9.636;2024-02-16T03:08:37;7.42;98.10
70851;DHT22;58475;49.662;9.636;2024-02-16T03:11:03;7.42;98.26
70851;DHT22;58475;49.662;9.636;2024-02-16T03:13:29;7.52;97.62
70851;DHT22;58475;49.662;9.636;2024-02-16T03:15:55;7.53;97.54
70851;DHT22;58475;49.662;9.636;2024-02-16T03:18:20;7.40;97.88
70851;DHT22;58475;49.662;9.636;2024-02-16T03:20:46;7.37;98.12
70851;DHT22;58475;49.662;9.636;2024-02-16T03:23:14;7.36;98.27
70851;DHT22;58475;49.662;9.636;2024-02-16T03:25:40;7.34;98.22
70851;DHT22;58475;49.662;9.636;2024-02-16T03:28:07;7.34;98.26
70851;DHT22;58475;49.662;9.636;2024-02-16T03:30:33;7.27;98.53
70851;DHT22;58475;49.662;9.636;2024-02-16T03:32:59;7.32;98.51
70851;DHT22;58475;49.662;9.636;2024-02-16T03:35:25;7.33;98.46
70851;DHT22;58475;49.662;9.636;2024-02-16T03:37:50;7.30;98.50
70851;DHT22;58475;49.662;9.636;2024-02-16T03:40:16;7.33;98.66
70851;DHT22;58475;49.662;9.636;2024-02-16T03:42:42;7.32;98.79
70851;DHT22;58475;49.662;9.636;2024-02-16T03:45:08;7.34;98.53
70851;DHT22;58475;49.662;9.636;2024-02-16T03:47:34;7.42;98.39
70851;DHT22;58475;49.662;9.636;2024-02-16T03:49:59;7.43;98.11
70851;DHT22;58475;49.662;9.636;2024-02-16T03:52:24;7.40;98.00
70851;DHT22;58475;49.662;9.636;2024-02-16T03:54:50;7.30;98.30
70851;DHT22;58475;49.662;9.636;2024-02-16T03:57:16;7.43;98.27
70851;DHT22;58475;49.662;9.636;2024-02-16T03:59:45;7.49;97.94
70851;DHT22;58475;49.662;9.636;2024-02-16T04:02:11;7.43;97.92
70851;DHT22;58475;49.662;9.636;2024-02-16T04:04:39;7.36;98.12
70851;DHT22;58475;49.662;9.636;2024-02-16T04:07:04;7.37;98.07
70851;DHT22;58475;49.662;9.636;2024-02-16T04:09:32;7.40;98.08
70851;DHT22;58475;49.662;9.636;2024-02-16T04:11:57;7.43;98.01
70851;DHT22;58475;49.662;9.636;2024-02-16T04:14:23;7.36;98.08
70851;DHT22;58475;49.662;9.636;2024-02-16T04:16:48;7.37;98.20
70851;DHT22;58475;49.662;9.636;2024-02-16T04:19:14;7.39;98.27
70851;DHT22;58475;49.662;9.636;2024-02-16T04:21:39;7.44;98.22
70851;DHT22;58475;49.662;9.636;2024-02-16T04:24:05;7.49;98.00
70851;DHT22;58475;49.662;9.636;2024-02-16T04:26:31;7.49;97.91
70851;DHT22;58475;49.662;9.636;2024-02-16T04:28:56;7.52;97.75
70851;DHT22;58475;49.662;9.636;2024-02-16T04:31:22;7.47;97.93
70851;DHT22;58475;49.662;9.636;2024-02-16T04:33:47;7.42;98.09
70851;DHT22;58475;49.662;9.636;2024-02-16T04:36:12;7.46;98.18
70851;DHT22;58475;49.662;9.636;2024-02-16T04:38:38;7.49;98.16
70851;DHT22;58475;49.662;9.636;2024-02-16T04:41:06;7.54;98.09
70851;DHT22;58475;49.662;9.636;2024-02-16T04:43:33;7.66;97.70
70851;DHT22;58475;49.662;9.636;2024-02-16T04:45:58;7.64;97.44
70851;DHT22;58475;49.662;9.636;2024-02-16T04:48:24;7.62;97.49
70851;DHT22;58475;49.662;9.636;2024-02-16T04:50:50;7.54;97.35
70851;DHT22;58475;49.662;9.636;2024-02-16T04:53:16;7.43;97.71
70851;DHT22;58475;49.662;9.636;2024-02-16T04:55:42;7.34;98.02
70851;DHT22;58475;49.662;9.636;2024-02-16T04:58:07;7.36;98.06
70851;DHT22;58475;49.662;9.636;2024-02-16T05:00:35;7.33;98.17
70851;DHT22;58475;49.662;9.636;2024-02-16T05:03:00;7.30;98.33
70851;DHT22;58475;49.662;9.636;2024-02-16T05:05:26;7.26;98.51
70851;DHT22;58475;49.662;9.636;2024-02-16T05:07:51;7.23;98.62
70851;DHT22;58475;49.662;9.636;2024-02-16T05:10:16;7.26;98.52
70851;DHT22;58475;49.662;9.636;2024-02-16T05:12:42;7.29;98.58
70851;DHT22;58475;49.662;9.636;2024-02-16T05:15:08;7.27;98.72
70851;DHT22;58475;49.662;9.636;2024-02-16T05:17:34;7.29;98.69
70851;DHT22;58475;49.662;9.636;2024-02-16T05:19:59;7.33;98.60
70851;DHT22;58475;49.662;9.636;2024-02-16T05:22:25;7.33;98.64
70851;DHT22;58475;49.662;9.636;2024-02-16T05:24:50;7.34;98.64
70851;DHT22;58475;49.662;9.636;2024-02-16T05:27:16;7.34;98.59
70851;DHT22;58475;49.662;9.636;2024-02-16T05:29:41;7.37;98.63
70851;DHT22;58475;49.662;9.636;2024-02-16T05:32:07;7.34;98.50
70851;DHT22;58475;49.662;9.636;2024-02-16T05:34:32;7.39;98.42
70851;DHT22;58475;49.662;9.636;2024-02-16T05:37:06;7.37;98.36
70851;DHT22;58475;49.662;9.636;2024-02-16T05:39:32;7.43;98.18
70851;DHT22;58475;49.662;9.636;2024-02-16T05:42:01;7.33;98.08
70851;DHT22;58475;49.662;9.636;2024-02-16T05:44:26;7.29;98.05
70851;DHT22;58475;49.662;9.636;2024-02-16T05:46:52;7.26;97.97
70851;DHT22;58475;49.662;9.636;2024-02-16T05:49:17;7.19;97.98
70851;DHT22;58475;49.662;9.636;2024-02-16T05:51:43;7.12;98.06
70851;DHT22;58475;49.662;9.636;2024-02-16T05:54:28;7.03;98.26
70851;DHT22;58475;49.662;9.636;2024-02-16T05:56:53;7.03;98.13
70851;DHT22;58475;49.662;9.636;2024-02-16T05:59:19;6.98;98.47
70851;DHT22;58475;49.662;9.636;2024-02-16T06:01:44;6.94;98.37
70851;DHT22;58475;49.662;9.636;2024-02-16T06:04:09;6.91;98.50
70851;DHT22;58475;49.662;9.636;2024-02-16T06:06:38;6.88;98.61
70851;DHT22;58475;49.662;9.636;2024-02-16T06:09:04;6.89;98.63
70851;DHT22;58475;49.662;9.636;2024-02-16T06:11:31;6.95;98.57
70851;DHT22;58475;49.662;9.636;2024-02-16T06:13:56;6.92;98.69
70851;DHT22;58475;49.662;9.636;2024-02-16T06:16:22;6.87;98.97
70851;DHT22;58475;49.662;9.636;2024-02-16T06:18:47;6.84;99.11
70851;DHT22;58475;49.662;9.636;2024-02-16T06:21:14;6.88;98.97
70851;DHT22;58475;49.662;9.636;2024-02-16T06:23:41;6.87;99.07
70851;DHT22;58475;49.662;9.636;2024-02-16T06:26:06;6.87;99.01
70851;DHT22;58475;49.662;9.636;2024-02-16T06:28:32;6.82;99.09
70851;DHT22;58475;49.662;9.636;2024-02-16T06:30:57;6.80;99.21
70851;DHT22;58475;49.662;9.636;2024-02-16T06:33:22;6.78;99.20
70851;DHT22;58475;49.662;9.636;2024-02-16T06:35:48;6.81;99.17
70851;DHT22;58475;49.662;9.636;2024-02-16T06:38:15;6.80;99.11
70851;DHT22;58475;49.662;9.636;2024-02-16T06:40:40;6.81;99.16
70851;DHT22;58475;49.662;9.636;2024-02-16T06:43:06;6.81;99.10
70851;DHT22;58475;49.662;9.636;2024-02-16T06:45:31;6.80;99.12
70851;DHT22;58475;49.662;9.636;2024-02-16T06:47:56;6.82;98.95
70851;DHT22;58475;49.662;9.636;2024-02-16T06:50:22;6.71;98.78
70851;DHT22;58475;49.662;9.636;2024-02-16T06:52:47;6.67;98.93
70851;DHT22;58475;49.662;9.636;2024-02-16T06:55:13;6.70;98.96
70851;DHT22;58475;49.662;9.636;2024-02-16T06:57:38;6.67;98.98
70851;DHT22;58475;49.662;9.636;2024-02-16T07:00:04;6.61;99.04
70851;DHT22;58475;49.662;9.636;2024-02-16T07:02:30;6.61;99.01
70851;DHT22;58475;49.662;9.636;2024-02-16T07:04:56;6.63;99.11
70851;DHT22;58475;49.662;9.636;2024-02-16T07:07:21;6.67;99.13
70851;DHT22;58475;49.662;9.636;2024-02-16T07:09:46;6.71;99.01
70851;DHT22;58475;49.662;9.636;2024-02-16T07:12:12;6.73;98.80
70851;DHT22;58475;49.662;9.636;2024-02-16T07:14:37;6.75;98.63
70851;DHT22;58475;49.662;9.636;2024-02-16T07:17:03;6.74;98.50
70851;DHT22;58475;49.662;9.636;2024-02-16T07:19:28;6.74;98.54
70851;DHT22;58475;49.662;9.636;2024-02-16T07:21:54;6.77;98.70
70851;DHT22;58475;49.662;9.636;2024-02-16T07:24:19;6.82;98.70
70851;DHT22;58475;49.662;9.636;2024-02-16T07:26:45;6.85;98.64
70851;DHT22;58475;49.662;9.636;2024-02-16T07:29:10;7.02;98.45
70851;DHT22;58475;49.662;9.636;2024-02-16T07:31:38;7.09;98.42
70851;DHT22;58475;49.662;9.636;2024-02-16T07:34:03;7.16;98.36
70851;DHT22;58475;49.662;9.636;2024-02-16T07:36:29;7.26;98.26
70851;DHT22;58475;49.662;9.636;2024-02-16T07:38:54;7.40;98.13
70851;DHT22;58475;49.662;9.636;2024-02-16T07:41:20;8.11;97.29
70851;DHT22;58475;49.662;9.636;2024-02-16T07:43:45;8.28;96.68
70851;DHT22;58475;49.662;9.636;2024-02-16T07:46:10;8.91;95.40
70851;DHT22;58475;49.662;9.636;2024-02-16T07:48:36;9.28;93.55
70851;DHT22;58475;49.662;9.636;2024-02-16T07:51:01;9.45;92.33
70851;DHT22;58475;49.662;9.636;2024-02-16T07:53:28;9.21;92.22
70851;DHT22;58475;49.662;9.636;2024-02-16T07:55:54;9.14;92.44
70851;DHT22;58475;49.662;9.636;2024-02-16T07:58:19;9.23;92.21
70851;DHT22;58475;49.662;9.636;2024-02-16T08:00:45;9.48;92.13
70851;DHT22;58475;49.662;9.636;2024-02-16T08:03:10;9.96;90.99
70851;DHT22;58475;49.662;9.636;2024-02-16T08:05:35;10.23;90.17
70851;DHT22;58475;49.662;9.636;2024-02-16T08:08:01;10.21;90.08
70851;DHT22;58475;49.662;9.636;2024-02-16T08:10:26;10.10;90.24
70851;DHT22;58475;49.662;9.636;2024-02-16T08:12:52;10.02;90.54
70851;DHT22;58475;49.662;9.636;2024-02-16T08:15:18;10.17;90.30
70851;DHT22;58475;49.662;9.636;2024-02-16T08:17:51;10.27;90.48
70851;DHT22;58475;49.662;9.636;2024-02-16T08:20:17;10.47;89.84
70851;DHT22;58475;49.662;9.636;2024-02-16T08:22:42;10.47;89.86
70851;DHT22;58475;49.662;9.636;2024-02-16T08:25:08;10.41;89.99
70851;DHT22;58475;49.662;9.636;2024-02-16T08:27:33;10.25;89.89
70851;DHT22;58475;49.662;9.636;2024-02-16T08:29:59;10.21;89.89
70851;DHT22;58475;49.662;9.636;2024-02-16T08:32:24;10.10;90.47
70851;DHT22;58475;49.662;9.636;2024-02-16T08:34:50;9.93;91.28
70851;DHT22;58475;49.662;9.636;2024-02-16T08:37:16;10.04;91.12
70851;DHT22;58475;49.662;9.636;2024-02-16T08:39:41;9.99;90.94
70851;DHT22;58475;49.662;9.636;2024-02-16T08:42:07;10.04;91.24
70851;DHT22;58475;49.662;9.636;2024-02-16T08:44:40;10.03;91.42
70851;DHT22;58475;49.662;9.636;2024-02-16T08:47:06;10.02;91.95
70851;DHT22;58475;49.662;9.636;2024-02-16T08:49:33;10.10;91.42
70851;DHT22;58475;49.662;9.636;2024-02-16T08:51:58;10.23;91.13
70851;DHT22;58475;49.662;9.636;2024-02-16T08:54:24;10.14;91.22
70851;DHT22;58475;49.662;9.636;2024-02-16T08:56:51;10.06;91.21
70851;DHT22;58475;49.662;9.636;2024-02-16T08:59:16;10.09;91.50
70851;DHT22;58475;49.662;9.636;2024-02-16T09:01:42;10.13;91.55
70851;DHT22;58475;49.662;9.636;2024-02-16T09:04:08;10.14;91.28
70851;DHT22;58475;49.662;9.636;2024-02-16T09:06:33;10.10;91.25
70851;DHT22;58475;49.662;9.636;2024-02-16T09:09:00;9.99;91.91
70851;DHT22;58475;49.662;9.636;2024-02-16T09:11:25;10.16;91.36
70851;DHT22;58475;49.662;9.636;2024-02-16T09:13:51;10.23;91.22
70851;DHT22;58475;49.662;9.636;2024-02-16T09:16:16;10.38;91.17
70851;DHT22;58475;49.662;9.636;2024-02-16T09:18:41;10.45;91.66
70851;DHT22;58475;49.662;9.636;2024-02-16T09:21:07;10.57;91.00
70851;DHT22;58475;49.662;9.636;2024-02-16T09:23:34;10.67;90.53
70851;DHT22;58475;49.662;9.636;2024-02-16T09:26:00;10.68;90.81
70851;DHT22;58475;49.662;9.636;2024-02-16T09:28:26;10.72;90.59
70851;DHT22;58475;49.662;9.636;2024-02-16T09:30:51;10.83;90.23
70851;DHT22;58475;49.662;9.636;2024-02-16T09:33:17;10.96;90.31
70851;DHT22;58475;49.662;9.636;2024-02-16T09:35:42;11.05;90.34
70851;DHT22;58475;49.662;9.636;2024-02-16T09:38:08;11.08;89.93
70851;DHT22;58475;49.662;9.636;2024-02-16T09:40:36;11.18;90.04
70851;DHT22;58475;49.662;9.636;2024-02-16T09:43:01;11.23;89.54
70851;DHT22;58475;49.662;9.636;2024-02-16T09:45:27;11.44;88.84
70851;DHT22;58475;49.662;9.636;2024-02-16T09:47:54;11.57;87.77
70851;DHT22;58475;49.662;9.636;2024-02-16T09:50:20;11.69;86.74
70851;DHT22;58475;49.662;9.636;2024-02-16T09:52:48;11.61;87.54
70851;DHT22;58475;49.662;9.636;2024-02-16T09:55:15;11.63;87.19
70851;DHT22;58475;49.662;9.636;2024-02-16T09:57:41;11.63;86.98
70851;DHT22;58475;49.662;9.636;2024-02-16T10:00:06;11.69;87.36
70851;DHT22;58475;49.662;9.636;2024-02-16T10:02:47;11.64;87.09
70851;DHT22;58475;49.662;9.636;2024-02-16T10:05:19;11.56;87.58
70851;DHT22;58475;49.662;9.636;2024-02-16T10:07:45;11.40;87.94
70851;DHT22;58475;49.662;9.636;2024-02-16T10:10:21;11.37;88.46
70851;DHT22;58475;49.662;9.636;2024-02-16T10:12:47;11.36;88.77
70851;DHT22;58475;49.662;9.636;2024-02-16T10:15:19;11.39;88.65
70851;DHT22;58475;49.662;9.636;2024-02-16T10:17:44;11.47;88.81
70851;DHT22;58475;49.662;9.636;2024-02-16T10:20:10;11.34;89.36
70851;DHT22;58475;49.662;9.636;2024-02-16T10:22:36;11.18;89.24
70851;DHT22;58475;49.662;9.636;2024-02-16T10:25:08;11.34;89.47
70851;DHT22;58475;49.662;9.636;2024-02-16T10:27:36;11.56;89.69
70851;DHT22;58475;49.662;9.636;2024-02-16T10:30:02;11.80;88.84
70851;DHT22;58475;49.662;9.636;2024-02-16T10:32:32;12.12;87.89
70851;DHT22;58475;49.662;9.636;2024-02-16T10:34:58;12.28;87.32
70851;DHT22;58475;49.662;9.636;2024-02-16T10:37:24;12.55;86.79
70851;DHT22;58475;49.662;9.636;2024-02-16T10:39:50;12.77;86.25
70851;DHT22;58475;49.662;9.636;2024-02-16T10:42:17;13.37;85.65
70851;DHT22;58475;49.662;9.636;2024-02-16T10:44:45;14.24;82.65
70851;DHT22;58475;49.662;9.636;2024-02-16T10:47:11;14.75;81.93
70851;DHT22;58475;49.662;9.636;2024-02-16T10:49:36;15.36;78.71
70851;DHT22;58475;49.662;9.636;2024-02-16T10:52:05;15.87;78.32
70851;DHT22;58475;49.662;9.636;2024-02-16T10:54:32;15.87;78.57
70851;DHT22;58475;49.662;9.636;2024-02-16T10:56:58;15.86;77.92
70851;DHT22;58475;49.662;9.636;2024-02-16T10:59:24;15.71;78.23
70851;DHT22;58475;49.662;9.636;2024-02-16T11:01:59;16.01;78.79
70851;DHT22;58475;49.662;9.636;2024-02-16T11:04:38;16.09;77.34
70851;DHT22;58475;49.662;9.636;2024-02-16T11:07:11;16.08;77.46
70851;DHT22;58475;49.662;9.636;2024-02-16T11:09:39;16.07;77.28
70851;DHT22;58475;49.662;9.636;2024-02-16T11:12:06;16.32;76.26
70851;DHT22;58475;49.662;9.636;2024-02-16T11:14:44;16.32;76.37
70851;DHT22;58475;49.662;9.636;2024-02-16T11:17:11;16.18;76.70
70851;DHT22;58475;49.662;9.636;2024-02-16T11:19:37;16.49;76.08
70851;DHT22;58475;49.662;9.636;2024-02-16T11:22:05;17.18;74.53
70851;DHT22;58475;49.662;9.636;2024-02-16T11:24:42;17.78;74.20
70851;DHT22;58475;49.662;9.636;2024-02-16T11:27:08;18.48;72.38
70851;DHT22;58475;49.662;9.636;2024-02-16T11:29:34;18.75;70.54
70851;DHT22;58475;49.662;9.636;2024-02-16T11:32:04;18.47;69.03
70851;DHT22;58475;49.662;9.636;2024-02-16T11:34:30;18.57;68.08
70851;DHT22;58475;49.662;9.636;2024-02-16T11:36:56;18.84;69.25
70851;DHT22;58475;49.662;9.636;2024-02-16T11:39:22;18.85;66.66
70851;DHT22;58475;49.662;9.636;2024-02-16T11:41:48;18.81;66.23
70851;DHT22;58475;49.662;9.636;2024-02-16T11:44:14;18.38;65.62
70851;DHT22;58475;49.662;9.636;2024-02-16T11:46:42;17.41;66.77
70851;DHT22;58475;49.662;9.636;2024-02-16T11:49:08;17.31;67.95
70851;DHT22;58475;49.662;9.636;2024-02-16T11:51:34;17.04;67.89
70851;DHT22;58475;49.662;9.636;2024-02-16T11:54:00;16.86;68.56
70851;DHT22;58475;49.662;9.636;2024-02-16T11:56:25;16.86;68.65
70851;DHT22;58475;49.662;9.636;2024-02-16T11:58:52;17.08;68.48
70851;DHT22;58475;49.662;9.636;2024-02-16T12:01:17;16.87;68.79
70851;DHT22;58475;49.662;9.636;2024-02-16T12:03:43;17.04;68.73
70851;DHT22;58475;49.662;9.636;2024-02-16T12:06:08;16.88;69.44
70851;DHT22;58475;49.662;9.636;2024-02-16T12:08:34;16.86;69.24
70851;DHT22;58475;49.662;9.636;2024-02-16T12:11:00;16.93;69.34
70851;DHT22;58475;49.662;9.636;2024-02-16T12:13:26;16.99;69.55
70851;DHT22;58475;49.662;9.636;2024-02-16T12:15:52;16.96;69.39
70851;DHT22;58475;49.662;9.636;2024-02-16T12:21:00;16.87;69.54
70851;DHT22;58475;49.662;9.636;2024-02-16T12:23:25;16.65;70.08
70851;DHT22;58475;49.662;9.636;2024-02-16T12:25:51;16.56;70.80
70851;DHT22;58475;49.662;9.636;2024-02-16T12:28:16;16.70;70.62
70851;DHT22;58475;49.662;9.636;2024-02-16T12:30:42;16.69;70.64
70851;DHT22;58475;49.662;9.636;2024-02-16T12:33:07;16.70;70.55
70851;DHT22;58475;49.662;9.636;2024-02-16T12:35:32;16.91;70.15
70851;DHT22;58475;49.662;9.636;2024-02-16T12:37:59;16.80;70.43
70851;DHT22;58475;49.662;9.636;2024-02-16T12:40:25;16.88;71.40
70851;DHT22;58475;49.662;9.636;2024-02-16T12:42:50;16.90;71.05
70851;DHT22;58475;49.662;9.636;2024-02-16T12:45:15;16.94;70.47
70851;DHT22;58475;49.662;9.636;2024-02-16T12:47:41;17.08;70.19
70851;DHT22;58475;49.662;9.636;2024-02-16T12:50:07;16.91;70.65
70851;DHT22;58475;49.662;9.636;2024-02-16T12:52:32;17.00;70.01
70851;DHT22;58475;49.662;9.636;2024-02-16T12:55:00;17.03;70.50
70851;DHT22;58475;49.662;9.636;2024-02-16T12:57:25;17.08;69.85
70851;DHT22;58475;49.662;9.636;2024-02-16T12:59:51;17.00;69.86
70851;DHT22;58475;49.662;9.636;2024-02-16T13:02:16;17.14;70.07
70851;DHT22;58475;49.662;9.636;2024-02-16T13:04:42;17.26;69.81
70851;DHT22;58475;49.662;9.636;2024-02-16T13:07:07;17.27;69.45
70851;DHT22;58475;49.662;9.636;2024-02-16T13:09:32;17.42;69.16
70851;DHT22;58475;49.662;9.636;2024-02-16T13:11:58;17.38;69.65
70851;DHT22;58475;49.662;9.636;2024-02-16T13:14:23;17.37;70.19
70851;DHT22;58475;49.662;9.636;2024-02-16T13:16:49;17.35;70.72
70851;DHT22;58475;49.662;9.636;2024-02-16T13:19:14;17.49;69.70
70851;DHT22;58475;49.662;9.636;2024-02-16T13:21:39;17.47;70.15
70851;DHT22;58475;49.662;9.636;2024-02-16T13:24:05;17.48;69.75
70851;DHT22;58475;49.662;9.636;2024-02-16T13:26:31;17.55;69.97
70851;DHT22;58475;49.662;9.636;2024-02-16T13:28:56;17.56;70.17
70851;DHT22;58475;49.662;9.636;2024-02-16T13:31:22;17.52;70.68
70851;DHT22;58475;49.662;9.636;2024-02-16T13:33:52;17.54;71.44
70851;DHT22;58475;49.662;9.636;2024-02-16T13:36:18;17.72;71.20
70851;DHT22;58475;49.662;9.636;2024-02-16T13:38:43;18.05;69.97
70851;DHT22;58475;49.662;9.636;2024-02-16T13:41:09;18.05;70.09
70851;DHT22;58475;49.662;9.636;2024-02-16T13:43:34;17.85;69.88
70851;DHT22;58475;49.662;9.636;2024-02-16T13:46:00;17.85;70.46
70851;DHT22;58475;49.662;9.636;2024-02-16T13:48:26;18.07;70.20
70851;DHT22;58475;49.662;9.636;2024-02-16T13:50:53;18.44;69.52
70851;DHT22;58475;49.662;9.636;2024-02-16T13:53:19;18.24;70.20
70851;DHT22;58475;49.662;9.636;2024-02-16T13:55:44;18.33;69.57
70851;DHT22;58475;49.662;9.636;2024-02-16T13:58:11;18.63;69.79
70851;DHT22;58475;49.662;9.636;2024-02-16T14:00:36;18.89;69.54
70851;DHT22;58475;49.662;9.636;2024-02-16T14:03:04;18.76;68.09
70851;DHT22;58475;49.662;9.636;2024-02-16T14:05:29;18.58;68.45
70851;DHT22;58475;49.662;9.636;2024-02-16T14:07:55;18.30;69.24
70851;DHT22;58475;49.662;9.636;2024-02-16T14:10:20;18.32;69.40
70851;DHT22;58475;49.662;9.636;2024-02-16T14:12:47;18.20;69.79
70851;DHT22;58475;49.662;9.636;2024-02-16T14:15:12;18.27;70.19
70851;DHT22;58475;49.662;9.636;2024-02-16T14:17:41;18.18;70.29
70851;DHT22;58475;49.662;9.636;2024-02-16T14:20:08;18.00;69.73
70851;DHT22;58475;49.662;9.636;2024-02-16T14:22:33;17.83;70.41
70851;DHT22;58475;49.662;9.636;2024-02-16T14:24:59;17.66;71.38
70851;DHT22;58475;49.662;9.636;2024-02-16T14:27:24;17.51;71.03
70851;DHT22;58475;49.662;9.636;2024-02-16T14:29:50;17.41;71.06
70851;DHT22;58475;49.662;9.636;2024-02-16T14:32:15;17.41;71.55
70851;DHT22;58475;49.662;9.636;2024-02-16T14:34:40;17.31;71.13
70851;DHT22;58475;49.662;9.636;2024-02-16T14:37:07;17.34;71.41
70851;DHT22;58475;49.662;9.636;2024-02-16T14:39:33;17.37;71.13
70851;DHT22;58475;49.662;9.636;2024-02-16T14:41:58;17.45;71.00
70851;DHT22;58475;49.662;9.636;2024-02-16T14:44:24;17.37;71.07
70851;DHT22;58475;49.662;9.636;2024-02-16T14:46:49;17.34;71.41
70851;DHT22;58475;49.662;9.636;2024-02-16T14:49:14;17.30;71.25
70851;DHT22;58475;49.662;9.636;2024-02-16T14:51:46;17.17;71.35
70851;DHT22;58475;49.662;9.636;2024-02-16T14:54:12;17.28;71.55
70851;DHT22;58475;49.662;9.636;2024-02-16T14:56:38;17.13;71.51
70851;DHT22;58475;49.662;9.636;2024-02-16T14:59:04;17.02;71.92
70851;DHT22;58475;49.662;9.636;2024-02-16T15:01:30;16.88;72.14
70851;DHT22;58475;49.662;9.636;2024-02-16T15:03:56;16.94;72.17
70851;DHT22;58475;49.662;9.636;2024-02-16T15:06:22;16.87;72.66
70851;DHT22;58475;49.662;9.636;2024-02-16T15:08:47;16.76;72.83
70851;DHT22;58475;49.662;9.636;2024-02-16T15:11:12;16.69;73.21
70851;DHT22;58475;49.662;9.636;2024-02-16T15:13:38;16.69;73.26
70851;DHT22;58475;49.662;9.636;2024-02-16T15:16:05;16.66;73.38
70851;DHT22;58475;49.662;9.636;2024-02-16T15:18:30;16.66;73.40
70851;DHT22;58475;49.662;9.636;2024-02-16T15:20:56;16.55;74.04
70851;DHT22;58475;49.662;9.636;2024-02-16T15:23:22;16.53;74.11
70851;DHT22;58475;49.662;9.636;2024-02-16T15:25:47;16.55;74.39
70851;DHT22;58475;49.662;9.636;2024-02-16T15:28:13;16.46;74.47
70851;DHT22;58475;49.662;9.636;2024-02-16T15:30:39;16.42;74.67
70851;DHT22;58475;49.662;9.636;2024-02-16T15:33:05;16.46;74.50
70851;DHT22;58475;49.662;9.636;2024-02-16T15:35:30;16.44;74.81